createdAt,value
2022-11-05T00:01:22.367Z,8.20
2022-11-05T00:04:09.360Z,8.20
2022-11-05T00:06:55.983Z,8.20
2022-11-05T00:09:32.855Z,8.30
2022-11-05T00:12:28.676Z,8.30
2022-11-05T00:15:15.590Z,8.30
2022-11-05T00:17:43.514Z,8.30
2022-11-05T00:20:13.864Z,8.30
2022-11-05T00:23:00.575Z,8.30
2022-11-05T00:25:30.384Z,8.40
2022-11-05T00:28:02.261Z,8.40
2022-11-05T00:30:33.026Z,8.50
2022-11-05T00:33:02.628Z,8.50
2022-11-05T00:35:30.164Z,8.60
2022-11-05T00:38:00.409Z,8.60
2022-11-05T00:40:30.952Z,8.60
2022-11-05T00:43:16.943Z,8.60
2022-11-05T00:45:44.709Z,8.60
2022-11-05T00:48:36.445Z,8.60
2022-11-05T00:51:07.833Z,8.60
2022-11-05T00:53:38.199Z,8.60
2022-11-05T00:56:06.959Z,8.60
2022-11-05T00:58:37.210Z,8.70
2022-11-05T01:01:10.943Z,8.70
2022-11-05T01:03:46.210Z,8.70
2022-11-05T01:06:18.271Z,8.70
2022-11-05T01:08:46.907Z,8.60
2022-11-05T01:11:33.747Z,8.70
2022-11-05T01:14:10.816Z,8.70
2022-11-05T01:16:39.603Z,8.70
2022-11-05T01:19:11.206Z,8.70
2022-11-05T01:21:39.538Z,8.70
2022-11-05T01:24:10.549Z,8.70
2022-11-05T01:26:40.521Z,8.60
2022-11-05T01:29:11.092Z,8.60
2022-11-05T01:31:42.001Z,8.50
2022-11-05T01:34:11.038Z,8.50
2022-11-05T01:36:41.147Z,8.40
2022-11-05T01:39:09.304Z,8.30
2022-11-05T01:41:36.830Z,8.30
2022-11-05T01:44:04.746Z,8.30
2022-11-05T01:46:35.473Z,8.20
2022-11-05T01:49:15.719Z,8.20
2022-11-05T01:51:45.624Z,8.20
2022-11-05T01:54:24.183Z,8.20
2022-11-05T01:57:08.685Z,8.10
2022-11-05T01:59:41.262Z,8.10
2022-11-05T02:02:12.019Z,8.10
2022-11-05T02:04:56.402Z,8.10
2022-11-05T02:07:25.947Z,8.10
2022-11-05T02:10:02.551Z,8.10
2022-11-05T02:12:35.552Z,8.10
2022-11-05T02:15:08.524Z,8.10
2022-11-05T02:17:51.521Z,8.00
2022-11-05T02:20:27.888Z,8.00
2022-11-05T02:23:36.036Z,8.00
2022-11-05T02:26:15.414Z,8.00
2022-11-05T02:29:03.442Z,8.00
2022-11-05T02:31:42.479Z,8.00
2022-11-05T02:34:31.019Z,8.00
2022-11-05T02:37:05.842Z,8.00
2022-11-05T02:39:39.229Z,7.90
2022-11-05T02:42:25.291Z,7.90
2022-11-05T02:45:10.634Z,7.90
2022-11-05T02:47:47.428Z,7.90
2022-11-05T02:50:42.251Z,7.90
2022-11-05T02:53:20.970Z,7.90
2022-11-05T02:55:57.098Z,7.90
2022-11-05T02:58:27.411Z,7.90
2022-11-05T03:00:57.167Z,7.90
2022-11-05T03:03:24.822Z,7.90
2022-11-05T03:06:22.988Z,7.90
2022-11-05T03:09:25.901Z,7.90
2022-11-05T03:12:06.184Z,7.90
2022-11-05T03:14:51.502Z,7.90
2022-11-05T03:17:30.964Z,7.90
2022-11-05T03:20:15.243Z,8.00
2022-11-05T03:22:59.547Z,8.00
2022-11-05T03:25:30.491Z,8.10
2022-11-05T03:28:04.263Z,8.10
2022-11-05T03:30:35.750Z,8.10
2022-11-05T03:33:11.877Z,8.10
2022-11-05T03:35:45.373Z,8.20
2022-11-05T03:38:29.186Z,8.20
2022-11-05T03:41:01.272Z,8.30
2022-11-05T03:43:37.966Z,8.30
2022-11-05T03:46:10.935Z,8.30
2022-11-05T03:48:44.364Z,8.30
2022-11-05T03:51:30.656Z,8.30
2022-11-05T03:54:04.701Z,8.40
2022-11-05T03:57:11.495Z,8.30
2022-11-05T03:59:46.485Z,8.30
2022-11-05T04:02:16.294Z,8.40
2022-11-05T04:04:44.457Z,8.40
2022-11-05T04:07:31.591Z,8.40
2022-11-05T04:10:20.752Z,8.40
2022-11-05T04:13:07.448Z,8.40
2022-11-05T04:15:54.124Z,8.50
2022-11-05T04:18:22.341Z,8.50
2022-11-05T04:21:08.755Z,8.40
2022-11-05T04:24:02.476Z,8.40
2022-11-05T04:26:32.602Z,8.40
2022-11-05T04:29:19.954Z,8.40
2022-11-05T04:31:47.669Z,8.40
2022-11-05T04:34:16.333Z,8.40
2022-11-05T04:36:43.991Z,8.40
2022-11-05T04:39:12.121Z,8.40
2022-11-05T04:41:40.496Z,8.40
2022-11-05T04:44:08.199Z,8.40
2022-11-05T04:46:35.988Z,8.40
2022-11-05T04:49:06.192Z,8.40
2022-11-05T04:51:33.988Z,8.40
2022-11-05T04:54:02.241Z,8.40
2022-11-05T04:56:29.971Z,8.30
2022-11-05T04:59:01.589Z,8.30
2022-11-05T05:01:29.699Z,8.30
2022-11-05T05:03:59.886Z,8.30
2022-11-05T05:06:27.707Z,8.30
2022-11-05T05:08:55.985Z,8.30
2022-11-05T05:11:26.552Z,8.30
2022-11-05T05:13:55.013Z,8.30
2022-11-05T05:16:25.190Z,8.30
2022-11-05T05:18:53.476Z,8.30
2022-11-05T05:21:40.499Z,8.30
2022-11-05T05:24:14.241Z,8.30
2022-11-05T05:26:48.291Z,8.30
2022-11-05T05:29:17.134Z,8.30
2022-11-05T05:31:45.044Z,8.40
2022-11-05T05:34:14.031Z,8.40
2022-11-05T05:36:45.032Z,8.40
2022-11-05T05:39:13.576Z,8.40
2022-11-05T05:41:41.771Z,8.40
2022-11-05T05:44:11.940Z,8.40
2022-11-05T05:46:39.734Z,8.40
2022-11-05T05:49:12.604Z,8.50
2022-11-05T05:51:41.453Z,8.50
2022-11-05T05:54:10.481Z,8.50
2022-11-05T05:56:38.620Z,8.50
2022-11-05T05:59:06.826Z,8.50
2022-11-05T06:01:34.820Z,8.50
2022-11-05T06:04:02.695Z,8.50
2022-11-05T06:06:30.588Z,8.50
2022-11-05T06:08:58.358Z,8.50
2022-11-05T06:11:29.564Z,8.50
2022-11-05T06:13:57.871Z,8.50
2022-11-05T06:16:28.676Z,8.50
2022-11-05T06:18:56.823Z,8.50
2022-11-05T06:21:25.036Z,8.50
2022-11-05T06:23:52.692Z,8.50
2022-11-05T06:26:20.444Z,8.50
2022-11-05T06:28:48.234Z,8.50
2022-11-05T06:31:17.386Z,8.50
2022-11-05T06:33:45.079Z,8.50
2022-11-05T06:36:16.674Z,8.50
2022-11-05T06:38:45.110Z,8.50
2022-11-05T06:41:13.223Z,8.50
2022-11-05T06:43:41.211Z,8.40
2022-11-05T06:46:11.860Z,8.40
2022-11-05T06:48:42.003Z,8.40
2022-11-05T06:51:10.077Z,8.40
2022-11-05T06:53:38.180Z,8.40
2022-11-05T06:56:07.060Z,8.40
2022-11-05T06:58:37.860Z,8.30
2022-11-05T07:01:10.483Z,8.30
2022-11-05T07:03:39.789Z,8.30
2022-11-05T07:06:10.163Z,8.30
2022-11-05T07:08:38.275Z,8.30
2022-11-05T07:11:08.445Z,8.30
2022-11-05T07:13:36.123Z,8.30
2022-11-05T07:16:04.578Z,8.30
2022-11-05T07:18:32.879Z,8.20
2022-11-05T07:21:00.897Z,8.30
2022-11-05T07:23:28.743Z,8.20
2022-11-05T07:26:01.278Z,8.30
2022-11-05T07:28:31.341Z,8.30
2022-11-05T07:31:01.511Z,8.30
2022-11-05T07:33:36.282Z,8.40
2022-11-05T07:36:05.823Z,8.40
2022-11-05T07:38:36.506Z,8.40
2022-11-05T07:41:06.388Z,8.40
2022-11-05T07:43:34.498Z,8.50
2022-11-05T07:46:03.195Z,8.50
2022-11-05T07:48:33.238Z,8.50
2022-11-05T07:51:04.235Z,8.50
2022-11-05T07:53:32.386Z,8.50
2022-11-05T07:56:00.636Z,8.60
2022-11-05T07:58:28.909Z,8.60
2022-11-05T08:00:58.086Z,8.60
2022-11-05T08:03:26.074Z,8.70
2022-11-05T08:05:54.867Z,8.70
2022-11-05T08:08:23.450Z,8.70
2022-11-05T08:10:51.622Z,8.80
2022-11-05T08:13:19.964Z,8.80
2022-11-05T08:15:48.137Z,8.90
2022-11-05T08:18:17.953Z,8.90
2022-11-05T08:20:47.521Z,8.90
2022-11-05T08:23:16.019Z,9.00
2022-11-05T08:25:43.924Z,9.00
2022-11-05T08:28:13.117Z,9.10
2022-11-05T08:30:40.956Z,9.10
2022-11-05T08:33:13.142Z,9.20
2022-11-05T08:35:41.845Z,9.20
2022-11-05T08:38:14.754Z,9.20
2022-11-05T08:40:56.133Z,9.30
2022-11-05T08:43:29.927Z,9.30
2022-11-05T08:46:00.839Z,9.40
2022-11-05T08:48:29.011Z,9.40
2022-11-05T08:51:00.014Z,9.50
2022-11-05T08:53:30.288Z,9.50
2022-11-05T08:55:58.860Z,9.50
2022-11-05T08:58:27.562Z,9.60
2022-11-05T09:00:59.010Z,9.60
2022-11-05T09:03:30.135Z,9.60
2022-11-05T09:06:00.454Z,9.60
2022-11-05T09:08:31.626Z,9.60
2022-11-05T09:10:59.434Z,9.60
2022-11-05T09:13:30.255Z,9.60
2022-11-05T09:15:59.462Z,9.70
2022-11-05T09:18:27.323Z,9.70
2022-11-05T09:21:00.410Z,9.70
2022-11-05T09:23:29.085Z,9.80
2022-11-05T09:25:59.776Z,9.80
2022-11-05T09:28:28.474Z,9.90
2022-11-05T09:30:56.313Z,9.90
2022-11-05T09:33:25.694Z,10.00
2022-11-05T09:35:54.081Z,10.00
2022-11-05T09:38:25.075Z,10.10
2022-11-05T09:41:05.532Z,10.10
2022-11-05T09:43:51.156Z,10.20
2022-11-05T09:46:24.234Z,10.20
2022-11-05T09:49:04.274Z,10.30
2022-11-05T09:51:33.179Z,10.30
2022-11-05T09:54:05.760Z,10.40
2022-11-05T09:56:37.947Z,10.40
2022-11-05T09:59:24.477Z,10.50
2022-11-05T10:02:31.603Z,10.50
2022-11-05T10:05:10.069Z,10.50
2022-11-05T10:08:04.714Z,10.60
2022-11-05T10:10:41.125Z,10.60
2022-11-05T10:13:33.711Z,10.70
2022-11-05T10:16:40.375Z,10.80
2022-11-05T10:19:25.283Z,10.90
2022-11-05T10:22:25.019Z,10.90
2022-11-05T10:24:53.571Z,11.00
2022-11-05T10:27:33.679Z,11.00
2022-11-05T10:30:02.666Z,11.00
2022-11-05T10:32:39.766Z,11.00
2022-11-05T10:35:18.788Z,11.10
2022-11-05T10:37:49.250Z,11.10
2022-11-05T10:40:28.487Z,11.10
2022-11-05T10:43:15.985Z,11.10
2022-11-05T10:46:18.925Z,11.00
2022-11-05T10:49:17.312Z,11.00
2022-11-05T10:51:47.049Z,11.00
2022-11-05T10:54:20.748Z,11.00
2022-11-05T10:56:51.260Z,10.90
2022-11-05T10:59:30.213Z,10.90
2022-11-05T11:02:13.080Z,10.90
2022-11-05T11:04:43.953Z,10.90
2022-11-05T11:07:24.799Z,10.90
2022-11-05T11:09:54.644Z,10.90
2022-11-05T11:12:29.017Z,10.90
2022-11-05T11:15:02.378Z,10.90
2022-11-05T11:17:33.030Z,10.90
2022-11-05T11:20:27.103Z,10.90
2022-11-05T11:23:05.495Z,10.90
2022-11-05T11:25:49.759Z,10.90
2022-11-05T11:28:22.232Z,10.90
2022-11-05T11:30:59.338Z,10.90
2022-11-05T11:33:28.634Z,10.90
2022-11-05T11:35:56.568Z,11.00
2022-11-05T11:38:26.379Z,11.00
2022-11-05T11:41:19.062Z,11.00
2022-11-05T11:43:47.034Z,11.00
2022-11-05T11:46:21.239Z,11.00
2022-11-05T11:48:52.069Z,11.00
2022-11-05T11:51:49.836Z,11.00
2022-11-05T11:54:28.833Z,11.00
2022-11-05T11:56:57.842Z,11.00
2022-11-05T11:59:53.828Z,11.00
2022-11-05T12:02:40.723Z,11.10
2022-11-05T12:05:26.588Z,11.10
2022-11-05T12:08:09.066Z,11.10
2022-11-05T12:11:01.534Z,11.10
2022-11-05T12:13:55.414Z,11.10
2022-11-05T12:16:50.654Z,11.20
2022-11-05T12:19:43.615Z,11.20
2022-11-05T12:22:36.953Z,11.20
2022-11-05T12:25:21.456Z,11.20
2022-11-05T12:28:28.126Z,11.20
2022-11-05T12:31:01.750Z,11.30
2022-11-05T12:33:57.427Z,11.30
2022-11-05T12:36:30.516Z,11.40
2022-11-05T12:39:26.152Z,11.40
2022-11-05T12:42:11.479Z,11.40
2022-11-05T12:44:48.592Z,11.50
2022-11-05T12:47:41.750Z,11.50
2022-11-05T12:50:18.225Z,11.50
2022-11-05T12:53:17.595Z,11.60
2022-11-05T12:55:49.665Z,11.60
2022-11-05T12:58:27.383Z,11.60
2022-11-05T13:01:04.307Z,11.70
2022-11-05T13:03:38.028Z,11.70
2022-11-05T13:06:15.750Z,11.80
2022-11-05T13:09:06.682Z,11.80
2022-11-05T13:11:50.525Z,11.80
2022-11-05T13:14:22.798Z,11.90
2022-11-05T13:17:00.285Z,11.90
2022-11-05T13:19:43.200Z,11.90
2022-11-05T13:22:25.013Z,12.00
2022-11-05T13:25:02.571Z,12.00
2022-11-05T13:27:53.987Z,12.10
2022-11-05T13:30:25.220Z,12.10
2022-11-05T13:33:18.683Z,12.20
2022-11-05T13:36:46.081Z,12.20
2022-11-05T13:39:32.538Z,12.30
2022-11-05T13:42:09.492Z,12.40
2022-11-05T13:45:18.103Z,12.50
2022-11-05T13:48:25.520Z,12.60
2022-11-05T13:51:16.379Z,12.70
2022-11-05T13:54:06.213Z,12.70
2022-11-05T13:56:51.168Z,12.80
2022-11-05T13:59:45.377Z,12.90
2022-11-05T14:02:27.950Z,12.90
2022-11-05T14:05:01.270Z,12.90
2022-11-05T14:07:37.729Z,12.90
2022-11-05T14:10:26.415Z,12.90
2022-11-05T14:12:56.912Z,12.90
2022-11-05T14:15:28.556Z,12.90
2022-11-05T14:18:18.978Z,12.90
2022-11-05T14:21:26.959Z,12.90
2022-11-05T14:24:22.930Z,12.80
2022-11-05T14:27:01.955Z,12.80
2022-11-05T14:29:43.585Z,12.80
2022-11-05T14:32:17.790Z,12.70
2022-11-05T14:35:20.968Z,12.80
2022-11-05T14:37:58.839Z,12.70
2022-11-05T14:40:36.451Z,12.70
2022-11-05T14:43:23.521Z,12.70
2022-11-05T14:45:56.332Z,12.60
2022-11-05T14:48:32.333Z,12.70
2022-11-05T14:51:00.778Z,12.70
2022-11-05T14:53:40.490Z,12.60
2022-11-05T14:56:15.071Z,12.60
2022-11-05T14:58:46.526Z,12.50
2022-11-05T15:01:14.257Z,12.50
2022-11-05T15:03:46.917Z,12.40
2022-11-05T15:06:32.487Z,12.30
2022-11-05T15:09:24.483Z,12.30
2022-11-05T15:11:55.120Z,12.30
2022-11-05T15:14:38.999Z,12.20
2022-11-05T15:17:34.724Z,12.20
2022-11-05T15:20:15.580Z,12.20
2022-11-05T15:22:47.454Z,12.20
2022-11-05T15:25:27.064Z,12.20
2022-11-05T15:28:10.748Z,12.20
2022-11-05T15:30:58.935Z,12.20
2022-11-05T15:33:27.192Z,12.30
2022-11-05T15:35:57.919Z,12.30
2022-11-05T15:38:27.879Z,12.30
2022-11-05T15:41:05.356Z,12.40
2022-11-05T15:43:35.747Z,12.40
2022-11-05T15:46:15.730Z,12.40
2022-11-05T15:48:55.701Z,12.40
2022-11-05T15:51:29.478Z,12.40
2022-11-05T15:54:29.810Z,12.40
2022-11-05T15:56:55.639Z,12.40
2022-11-05T15:59:26.003Z,12.40
2022-11-05T16:02:18.510Z,12.40
2022-11-05T16:04:50.205Z,12.40
2022-11-05T16:07:18.654Z,12.40
2022-11-05T16:09:59.801Z,12.40
2022-11-05T16:12:33.561Z,12.30
2022-11-05T16:15:10.268Z,12.00
2022-11-05T16:17:37.917Z,11.70
2022-11-05T16:20:23.071Z,11.50
2022-11-05T16:22:59.419Z,11.30
2022-11-05T16:25:39.095Z,11.20
2022-11-05T16:28:21.322Z,11.10
2022-11-05T16:31:02.484Z,11.00
2022-11-05T16:33:34.719Z,10.90
2022-11-05T16:36:04.021Z,10.90
2022-11-05T16:38:33.821Z,10.80
2022-11-05T16:41:04.193Z,10.80
2022-11-05T16:43:31.995Z,10.80
2022-11-05T16:46:02.939Z,10.70
2022-11-05T16:48:33.177Z,10.80
2022-11-05T16:51:03.886Z,10.70
2022-11-05T16:53:31.569Z,10.70
2022-11-05T16:56:04.779Z,10.60
2022-11-05T16:58:33.145Z,10.60
2022-11-05T17:01:11.888Z,10.50
2022-11-05T17:03:40.319Z,10.40
2022-11-05T17:06:08.204Z,10.30
2022-11-05T17:08:36.002Z,10.30
2022-11-05T17:11:06.922Z,10.20
2022-11-05T17:13:35.047Z,10.20
2022-11-05T17:16:02.935Z,10.30
2022-11-05T17:18:33.100Z,10.30
2022-11-05T17:21:06.770Z,10.30
2022-11-05T17:23:35.152Z,10.40
2022-11-05T17:26:06.940Z,10.40
2022-11-05T17:28:35.438Z,10.40
2022-11-05T17:31:08.846Z,10.40
2022-11-05T17:33:41.512Z,10.40
2022-11-05T17:36:13.728Z,10.30
2022-11-05T17:38:45.027Z,10.30
2022-11-05T17:41:19.059Z,10.20
2022-11-05T17:43:56.178Z,10.10
2022-11-05T17:46:25.372Z,10.00
2022-11-05T17:48:53.018Z,9.90
2022-11-05T17:51:23.349Z,9.80
2022-11-05T17:53:54.032Z,9.70
2022-11-05T17:56:33.506Z,9.70
2022-11-05T17:59:03.613Z,9.60
2022-11-05T18:01:37.484Z,9.60
2022-11-05T18:04:08.911Z,9.50
2022-11-05T18:06:40.982Z,9.60
2022-11-05T18:09:10.151Z,9.60
2022-11-05T18:11:40.129Z,9.50
2022-11-05T18:14:08.080Z,9.50
2022-11-05T18:16:39.391Z,9.50
2022-11-05T18:19:07.655Z,9.50
2022-11-05T18:21:35.478Z,9.40
2022-11-05T18:24:07.332Z,9.30
2022-11-05T18:26:35.358Z,9.30
2022-11-05T18:29:05.168Z,9.30
2022-11-05T18:31:32.949Z,9.30
2022-11-05T18:34:00.901Z,9.30
2022-11-05T18:36:34.506Z,9.30
2022-11-05T18:39:04.198Z,9.20
2022-11-05T18:41:34.501Z,9.20
2022-11-05T18:44:03.458Z,9.20
2022-11-05T18:46:56.979Z,9.10
2022-11-05T18:49:24.288Z,9.00
2022-11-05T18:51:54.805Z,9.00
2022-11-05T18:54:25.008Z,8.90
2022-11-05T18:56:55.890Z,8.80
2022-11-05T18:59:40.063Z,8.80
2022-11-05T19:02:11.359Z,8.60
2022-11-05T19:04:46.793Z,8.50
2022-11-05T19:07:23.868Z,8.50
2022-11-05T19:09:52.318Z,8.40
2022-11-05T19:12:22.480Z,8.40
2022-11-05T19:14:50.343Z,8.30
2022-11-05T19:17:17.992Z,8.20
2022-11-05T19:19:48.135Z,8.10
2022-11-05T19:22:16.427Z,8.10
2022-11-05T19:24:44.683Z,8.00
2022-11-05T19:27:12.499Z,7.90
2022-11-05T19:29:40.155Z,7.80
2022-11-05T19:32:09.274Z,7.70
2022-11-05T19:34:40.023Z,7.60
2022-11-05T19:37:10.847Z,7.60
2022-11-05T19:39:42.083Z,7.50
2022-11-05T19:42:13.012Z,7.50
2022-11-05T19:57:27.444Z,7.20
2022-11-05T19:59:56.041Z,7.20
2022-11-05T20:02:25.138Z,7.20
2022-11-05T20:04:53.419Z,7.10
2022-11-05T20:07:23.769Z,7.10
2022-11-05T20:09:51.422Z,7.00
2022-11-05T20:12:19.602Z,7.00
2022-11-05T20:14:47.787Z,7.00
2022-11-05T20:17:20.697Z,6.90
2022-11-05T20:19:48.439Z,6.90
2022-11-05T20:22:16.667Z,6.80
2022-11-05T20:24:44.461Z,6.80
2022-11-05T20:27:15.616Z,6.70
2022-11-05T20:29:43.923Z,6.70
2022-11-05T20:32:12.687Z,6.60
2022-11-05T20:34:40.674Z,6.60
2022-11-05T20:37:09.239Z,6.50
2022-11-05T20:39:37.605Z,6.40
2022-11-05T20:42:06.491Z,6.40
2022-11-05T20:44:34.140Z,6.40
2022-11-05T20:47:01.844Z,6.40
2022-11-05T20:49:29.607Z,6.30
2022-11-05T20:52:02.434Z,6.30
2022-11-05T20:54:30.258Z,6.20
2022-11-05T20:57:01.117Z,6.20
2022-11-05T20:59:30.942Z,6.20
2022-11-05T21:01:58.677Z,6.10
2022-11-05T21:04:28.987Z,6.10
2022-11-05T21:06:57.786Z,6.00
2022-11-05T21:09:26.260Z,6.00
2022-11-05T21:12:12.519Z,6.00
2022-11-05T21:14:41.962Z,5.90
2022-11-05T21:17:12.395Z,5.90
2022-11-05T21:19:40.347Z,5.90
2022-11-05T21:22:08.843Z,5.90
2022-11-05T21:24:36.833Z,5.80
2022-11-05T21:27:05.235Z,5.80
2022-11-05T21:29:32.865Z,5.80
2022-11-05T21:32:03.964Z,5.80
2022-11-05T21:34:32.339Z,5.70
2022-11-05T21:37:00.994Z,5.70
2022-11-05T21:39:34.094Z,5.70
2022-11-05T21:42:07.269Z,5.70
2022-11-05T21:44:35.272Z,5.70
2022-11-05T21:47:04.624Z,5.70
2022-11-05T21:49:34.667Z,5.60
2022-11-05T21:52:21.231Z,5.60
2022-11-05T21:55:08.646Z,5.50
2022-11-05T21:57:55.124Z,5.50
2022-11-05T22:00:25.234Z,5.50
2022-11-05T22:02:53.621Z,5.40
2022-11-05T22:05:23.697Z,5.40
2022-11-05T22:07:51.489Z,5.40
2022-11-05T22:10:21.780Z,5.30
2022-11-05T22:12:52.431Z,5.30
2022-11-05T22:15:20.207Z,5.30
2022-11-05T22:17:51.349Z,5.20
2022-11-05T22:20:20.149Z,5.20
2022-11-05T22:22:54.272Z,5.20
2022-11-05T22:25:22.359Z,5.10
2022-11-05T22:27:50.616Z,5.20
2022-11-05T22:30:18.878Z,5.10
2022-11-05T22:32:46.723Z,5.10
2022-11-05T22:35:16.953Z,5.20
2022-11-05T22:37:45.177Z,5.20
2022-11-05T22:40:13.621Z,5.20
2022-11-05T22:42:41.437Z,5.30
2022-11-05T22:45:10.306Z,5.40
2022-11-05T22:47:38.018Z,5.40
2022-11-05T22:50:06.380Z,5.40
2022-11-05T22:52:34.568Z,5.40
2022-11-05T22:55:05.112Z,5.40
2022-11-05T22:57:35.440Z,5.40
2022-11-05T23:00:07.019Z,5.40
2022-11-05T23:02:34.958Z,5.40
2022-11-05T23:05:03.778Z,5.50
2022-11-05T23:07:50.810Z,5.50
2022-11-05T23:10:40.053Z,5.50
2022-11-05T23:13:08.128Z,5.50
2022-11-05T23:15:55.235Z,5.50
2022-11-05T23:18:42.158Z,5.60
2022-11-05T23:21:31.372Z,5.60
2022-11-05T23:24:04.708Z,5.60
2022-11-05T23:26:50.005Z,5.60
2022-11-05T23:29:23.505Z,5.60
2022-11-05T23:32:14.990Z,5.60
2022-11-05T23:34:42.869Z,5.60
2022-11-05T23:37:29.219Z,5.50
2022-11-05T23:40:02.632Z,5.50
2022-11-05T23:42:48.868Z,5.50
2022-11-05T23:45:37.944Z,5.40
2022-11-05T23:48:21.923Z,5.40
2022-11-05T23:50:56.290Z,5.30
2022-11-05T23:53:24.539Z,5.30
2022-11-05T23:56:02.974Z,5.30
2022-11-05T23:58:34.048Z,5.20
